• Join FlightAware (Why Join?)
  • Login
  • US Flag 
07:56PM EDT


 

Airport Tracker/Info


-or-


 

Live Flight TrackerFlight Track Log ✈ EJA583 ✈ 13-Nov-2013 ✈ KLAL - KMLU

Flight Track Log - Related Links

Times and Time Zones

All times are in EST time to prevent confusion due to time zone crossing. See the EJA583 flight status page for this flight to view local times or setup timezone preferences in your user account.

Time Position Orientation Groundspeed Altitude Reporting Facility
EST Latitude Longitude Course Direction KTS MPH feet Rate Location/Type
07:32AM 27.9833 -82.0167 24° Northeast 170 196 800  Level Tampa TRACON
07:33AM 28.0167 -82.0000 24° Northeast 185 213 2,300 3,060 Climbing Tampa TRACON
07:35AM 28.1244 -82.1042 320° Northwest 249 287 10,500 3,360 Climbing Jacksonville Center
07:36AM 28.1750 -82.1581 317° Northwest 243 280 13,700 3,060 Climbing Jacksonville Center
07:37AM 28.2294 -82.2117 319° Northwest 243 280 16,700 2,820 Climbing Jacksonville Center
07:38AM 28.2861 -82.2656 320° Northwest 249 287 19,400 2,760 Climbing Jacksonville Center
07:39AM 28.3447 -82.3219 320° Northwest 261 300 22,300 2,700 Climbing Jacksonville Center
07:40AM 28.4075 -82.3711 325° Northwest 271 312 24,800 1,800 Climbing Jacksonville Center
07:41AM 28.4725 -82.4250 324° Northwest 283 326 26,000 1,200 Climbing Jacksonville Center
07:42AM 28.5458 -82.4908 322° Northwest 311 358 27,200 1,500 Climbing Jacksonville Center
07:43AM 28.6211 -82.5592 321° Northwest 334 384 29,100 1,860 Climbing Jacksonville Center
07:44AM 28.6903 -82.6250 320° Northwest 334 384 31,000 1,920 Climbing Jacksonville Center
07:45AM 28.7569 -82.6842 322° Northwest 323 372 33,000 1,860 Climbing Jacksonville Center
07:46AM 28.8261 -82.7456 322° Northwest 318 366 34,800 1,500 Climbing Jacksonville Center
07:47AM 28.8950 -82.8094 321° Northwest 318 366 36,000 960 Climbing Jacksonville Center
07:48AM 28.9681 -82.8783 320° Northwest 324 373 36,800 1,200 Climbing Jacksonville Center
07:49AM 29.0411 -82.9472 321° Northwest 335 386 38,400 1,500 Climbing Jacksonville Center
07:50AM 29.1119 -83.0114 322° Northwest 335 386 39,900 780 Climbing Jacksonville Center
07:51AM 29.1725 -83.0853 313° West 327 376 40,000  Climbing Jacksonville Center
07:52AM 29.2119 -83.1781 296° West 321 369 40,000  Level Jacksonville Center
07:53AM 29.2472 -83.2686 294° West 316 364 40,000  Level Jacksonville Center
07:54AM 29.2844 -83.3569 296° West 311 358 40,000  Level Jacksonville Center
07:55AM 29.3217 -83.4450 296° West 311 358 40,000  Level Jacksonville Center
07:56AM 29.3608 -83.5311 298° West 311 358 40,000  Level Jacksonville Center
07:57AM 29.3958 -83.6219 294° West 311 358 40,000  Level Jacksonville Center
07:58AM 29.4350 -83.7106 297° West 311 358 40,000  Level Jacksonville Center
07:59AM 29.4700 -83.7992 294° West 311 358 40,000  Level Jacksonville Center
08:00AM 29.5089 -83.8925 296° West 316 364 40,000  Level Jacksonville Center
08:01AM 29.5458 -83.9811 296° West 316 364 40,000  Level Jacksonville Center
08:02AM 29.5825 -84.0722 295° West 316 364 40,000  Level Jacksonville Center
08:03AM 29.6192 -84.1658 294° West 316 364 40,000  Level Jacksonville Center
08:04AM 29.6558 -84.2525 296° West 316 364 40,000  Level Jacksonville Center
08:05AM 29.6925 -84.3439 295° West 316 364 40,000  Level Jacksonville Center
08:06AM 29.7311 -84.4353 296° West 316 364 40,000  Level Jacksonville Center
08:07AM 29.7633 -84.5242 293° West 316 364 40,000  Level Jacksonville Center
08:08AM 29.8019 -84.6111 297° West 316 364 40,000  Level Jacksonville Center
08:09AM 29.8403 -84.7028 296° West 316 364 40,000  Level Jacksonville Center
08:10AM 29.8767 -84.7919 295° West 316 364 40,000  Level Jacksonville Center
08:11AM 29.9128 -84.8839 294° West 316 364 40,000  Level Jacksonville Center
08:12AM 29.9489 -84.9733 295° West 316 364 40,000  Level Jacksonville Center
08:13AM 29.9850 -85.0653 294° West 316 364 40,000  Level Jacksonville Center
08:14AM 30.0211 -85.1522 296° West 316 364 40,000  Level Jacksonville Center
08:15AM 30.0569 -85.2419 295° West 316 364 40,000  Level Jacksonville Center
08:16AM 30.0928 -85.3342 294° West 316 364 40,000  Level Jacksonville Center
08:17AM 30.1244 -85.4286 291° West 316 364 40,000  Level Jacksonville Center
08:18AM 30.1600 -85.5208 294° West 318 366 40,000  Level Jacksonville Center
08:19AM 30.1961 -85.5986 298° West 304 350 40,000  Level Jacksonville Center
08:20AM 30.2294 -85.6933 292° West 304 350 40,000  Level Jacksonville Center
08:21AM 30.2733 -85.7908 298° West 304 350 40,000  Level Jacksonville Center
08:22AM 30.3067 -85.8783 294° West 299 344 40,000  Level Jacksonville Center
08:23AM 30.3422 -85.9661 295° West 299 344 40,000  Level Jacksonville Center
08:24AM 30.3756 -86.0539 294° West 299 344 40,000  Level Jacksonville Center
08:25AM 30.4108 -86.1417 295° West 299 344 40,000  Level Jacksonville Center
08:26AM 30.4442 -86.2297 294° West 299 344 40,000  Level Jacksonville Center
08:27AM 30.4814 -86.3200 296° West 299 344 40,000  Level Jacksonville Center
08:28AM 30.5122 -86.4103 292° West 299 344 40,000  Level Jacksonville Center
08:29AM 30.5475 -86.5008 294° West 299 344 40,000  Level Jacksonville Center
08:30AM 30.5825 -86.5892 295° West 299 344 40,000  Level Jacksonville Center
08:31AM 30.6172 -86.6822 293° West 299 344 40,000  Level Jacksonville Center
08:32AM 30.6522 -86.7681 295° West 299 344 40,000  Level Jacksonville Center
08:33AM 30.6847 -86.8611 292° West 299 344 40,000  Level Jacksonville Center
08:34AM 30.7197 -86.9494 295° West 299 344 40,000  Level Jacksonville Center
08:35AM 30.7503 -87.0331 293° West 299 344 40,000  Level Jacksonville Center
08:37AM 30.8108 -87.1917 294° West 308 354 40,000  Level Houston Center
08:38AM 30.8450 -87.2825 294° West 307 353 40,000  Level Houston Center
08:39AM 30.8792 -87.3728 294° West 306 352 40,000  Level Houston Center
08:40AM 30.9131 -87.4636 294° West 306 352 40,000  Level Houston Center
08:41AM 30.9475 -87.5519 294° West 301 346 40,000  Level Houston Center
08:42AM 30.9878 -87.6622 293° West 307 353 40,000  Level Houston Center
08:43AM 31.0197 -87.7514 293° West 314 361 40,000  Level Houston Center
08:44AM 31.0553 -87.8436 294° West 313 360 40,000  Level Houston Center
08:45AM 31.0894 -87.9369 293° West 314 361 40,000  Level Houston Center
08:46AM 31.1236 -88.0311 293° West 315 362 40,000  Level Houston Center
08:47AM 31.1664 -88.1433 294° West 317 365 40,000  Level Houston Center
08:48AM 31.2008 -88.2392 293° West 319 367 40,000  Level Houston Center
08:50AM 31.2344 -88.3336 293° West 319 367 40,000  Level Houston Center
08:51AM 31.2689 -88.4294 293° West 320 368 40,000  Level Houston Center
08:52AM 31.3028 -88.5242 293° West 319 367 40,000  Level Houston Center
08:53AM 31.3364 -88.6175 293° West 316 364 40,000  Level Houston Center
08:54AM 31.3772 -88.7297 293° West 313 360 40,000 -540 Level Houston Center
08:55AM 31.4117 -88.8261 293° West 322 371 39,000 -1,140 Descending Houston Center
08:56AM 31.4472 -88.9258 293° West 334 384 37,700 -1,380 Descending Houston Center
08:57AM 31.4819 -89.0242 293° West 329 379 36,200 -1,500 Descending Houston Center
08:58AM 31.5147 -89.1175 292° West 315 362 34,700 -1,080 Descending Houston Center
08:59AM 31.5486 -89.2108 293° West 312 359 34,000 -360 Descending Houston Center
09:00AM 31.5894 -89.3275 292° West 321 369 34,000  Level Houston Center
09:01AM 31.6236 -89.4275 292° West 327 376 34,000  Level Houston Center
09:02AM 31.6597 -89.5278 293° West 333 383 34,000 -540 Level Houston Center
09:03AM 31.6958 -89.6275 293° West 334 384 32,900 -1,380 Descending Houston Center
09:04AM 31.7325 -89.7289 293° West 336 387 31,200 -1,620 Descending Houston Center
09:05AM 31.7697 -89.8361 292° West 348 400 29,600 -1,620 Descending Houston Center
09:06AM 31.8075 -89.9472 292° West 360 414 27,900 -1,800 Descending Houston Center
09:07AM 31.8519 -90.0781 292° West 361 415 26,000 -1,080 Descending Houston Center
09:08AM 31.8922 -90.1919 293° West 373 429 25,800 -180 Descending Houston Center
09:09AM 31.9153 -90.2569 293° West 380 437 25,700 -660 Descending Memphis Center
09:10AM 31.9558 -90.3756 292° West 388 447 24,700 -1,140 Descending Memphis Center
09:11AM 32.0058 -90.5225 292° West 399 459 23,400 -1,380 Descending Memphis Center
09:12AM 32.0469 -90.6414 292° West 395 455 21,900 -1,500 Descending Memphis Center
09:13AM 32.0856 -90.7550 292° West 382 440 20,300 -1,500 Descending Memphis Center
09:14AM 32.1247 -90.8683 292° West 376 433 18,800 -1,200 Descending Memphis Center
09:15AM 32.1619 -90.9806 291° West 370 426 17,900 -1,140 Descending Memphis Center
09:16AM 32.1986 -91.0914 291° West 365 420 16,500 -1,560 Descending Memphis Center
09:17AM 32.2422 -91.2247 291° West 364 419 14,700 -1,620 Descending Memphis Center
09:18AM 32.2803 -91.3367 292° West 366 421 13,200 -840 Descending Memphis Center
09:19AM 32.3183 -91.4475 292° West 366 421 13,000 -840 Descending Memphis Center
09:20AM 32.3514 -91.5403 293° West 332 382 11,500 -1,740 Descending Memphis Center
09:21AM 32.3733 -91.6269 287° West 301 346 9,500 -2,220 Descending Memphis Center
09:22AM 32.3917 -91.7336 282° West 287 330 7,000 -2,040 Descending Memphis Center
09:23AM 32.4019 -91.8006 280° West 277 319 5,300 -1,680 Descending Memphis Center
09:25AM 32.4628 -91.9141 283° West  Level FlightAware Approximate
09:32AM 32.5000 -92.0333 292° West  Level FlightAware Approximate